Time;durP1;ratioP1;P1;durP2;ratioP2;P2;SDS_P1;SDS_P2;PMS_P1;PMS_P2;Temp;Humidity;BMP_temperature;BMP_pressure;BME280_temperature;BME280_humidity;BME280_pressure;Samples;Min_cycle;Max_cycle;Signal;HPM_P1;HPM_P2
2021/07/29 00:00:35;;;;;;;6.75;1.73;;;;;;;17.53;67.81;100856.47;5080089;28;20185;-65
2021/07/29 00:03:01;;;;;;;8.25;1.80;;;;;;;18.21;63.13;100844.63;5080742;28;20034;-65
2021/07/29 00:05:27;;;;;;;5.85;1.55;;;;;;;17.66;66.78;100849.34;5080602;28;20040;-65
2021/07/29 00:07:52;;;;;;;9.32;1.70;;;;;;;18.26;65.56;100842.44;5079828;28;20059;-65
2021/07/29 00:10:18;;;;;;;5.47;1.60;;;;;;;17.64;67.50;100841.53;5080525;28;20035;-65
2021/07/29 00:12:43;;;;;;;4.82;1.50;;;;;;;18.10;68.21;100836.56;5080795;28;20032;-65
2021/07/29 00:15:11;;;;;;;10.02;1.98;;;;;;;17.10;69.69;100833.81;5060929;28;20260;-65
2021/07/29 00:20:21;;;;;;;10.90;2.33;;;;;;;17.57;66.06;100819.09;5080894;28;20036;-66
2021/07/29 00:22:53;;;;;;;8.50;2.25;;;;;;;17.22;67.53;100829.47;5079471;28;20091;-66
2021/07/29 00:25:22;;;;;;;7.20;2.35;;;;;;;16.47;69.78;100832.69;5080496;28;20040;-66
2021/07/29 00:27:47;;;;;;;;;;;;;;;16.95;69.02;100817.16;5081108;28;20039;-66
2021/07/29 00:30:13;;;;;;;11.10;2.33;;;;;;;17.64;66.65;100820.34;5078900;28;19916;-66
2021/07/29 00:32:39;;;;;;;14.00;2.42;;;;;;;17.09;68.57;100810.94;5080295;28;20036;-65
2021/07/29 00:35:06;;;;;;;8.68;2.63;;;;;;;17.73;67.45;100810.03;5079565;28;20081;-66
2021/07/29 00:37:33;;;;;;;6.22;2.33;;;;;;;18.43;66.92;100814.72;5080137;28;20188;-66
2021/07/29 00:39:58;;;;;;;13.73;2.65;;;;;;;18.71;66.24;100804.69;5080408;28;20024;-66
2021/07/29 00:42:24;;;;;;;11.90;3.03;;;;;;;17.88;66.59;100808.97;5079847;28;20024;-66
2021/07/29 00:44:49;;;;;;;7.03;2.20;;;;;;;18.26;67.69;100815.94;5080578;28;20238;-66
2021/07/29 00:47:16;;;;;;;3.22;1.90;;;;;;;18.61;66.82;100802.72;5078718;28;20043;-66
2021/07/29 00:49:41;;;;;;;5.15;2.15;;;;;;;18.34;66.22;100797.69;5079674;28;20286;-66
2021/07/29 00:52:07;;;;;;;6.55;2.35;;;;;;;18.27;67.49;100801.75;5079110;28;20079;-66
2021/07/29 00:54:32;;;;;;;14.57;3.38;;;;;;;18.08;67.43;100796.97;5079639;28;20049;-66
2021/07/29 00:56:58;;;;;;;11.43;2.60;;;;;;;18.94;65.68;100802.97;5080549;28;20040;-66
2021/07/29 00:59:23;;;;;;;9.55;3.13;;;;;;;18.11;68.53;100796.72;5078545;28;20074;-66
2021/07/29 01:05:02;;;;;;;9.25;3.22;;;;;;;17.49;70.67;100805.53;5079075;28;20040;-66
2021/07/29 01:07:27;;;;;;;13.98;3.33;;;;;;;17.60;69.08;100807.44;5081059;28;20040;-66
2021/07/29 01:09:52;;;;;;;12.70;3.13;;;;;;;18.13;67.66;100804.56;5080389;28;20091;-65
2021/07/29 01:12:18;;;;;;;8.90;2.65;;;;;;;19.16;64.47;100804.81;5078308;28;20032;-66
2021/07/29 01:14:46;;;;;;;12.38;2.88;;;;;;;18.87;64.95;100812.38;5078829;28;20036;-66
2021/07/29 01:17:12;;;;;;;14.90;2.63;;;;;;;18.87;65.37;100810.56;5079647;28;20039;-66
2021/07/29 01:19:37;;;;;;;13.20;2.47;;;;;;;19.35;63.80;100804.22;5080416;28;20212;-66
2021/07/29 01:22:03;;;;;;;14.40;2.97;;;;;;;18.32;66.08;100806.69;5080396;28;20032;-66
2021/07/29 01:24:28;;;;;;;16.75;4.63;;;;;;;18.00;67.41;100800.13;5079505;28;20418;-66
2021/07/29 01:26:54;;;;;;;7.47;2.22;;;;;;;18.38;67.58;100803.59;5080024;28;20036;-66
2021/07/29 01:29:19;;;;;;;8.23;2.65;;;;;;;18.74;66.74;100789.38;5079292;28;20331;-66
2021/07/29 01:31:45;;;;;;;19.20;3.67;;;;;;;17.89;69.28;100809.84;5080054;28;20223;-66
2021/07/29 01:34:11;;;;;;;3.70;1.73;;;;;;;18.59;67.25;100809.09;5079468;28;20035;-66
2021/07/29 01:36:36;;;;;;;4.80;1.90;;;;;;;19.79;62.78;100822.97;5080435;28;20043;-66
2021/07/29 01:39:01;;;;;;;5.78;1.85;;;;;;;20.25;61.56;100821.91;5079801;28;20032;-66
2021/07/29 01:41:27;;;;;;;4.68;1.27;;;;;;;20.23;59.33;100815.84;5080437;28;20041;-65
2021/07/29 01:43:52;;;;;;;4.50;1.27;;;;;;;20.31;60.47;100824.91;5083739;28;20295;-65
2021/07/29 01:46:18;;;;;;;4.20;1.50;;;;;;;20.57;60.71;100829.03;5082061;28;20036;-66
2021/07/29 01:48:43;;;;;;;5.93;1.70;;;;;;;19.45;62.72;100823.78;5083448;28;20055;-66
2021/07/29 01:51:09;;;;;;;4.28;1.60;;;;;;;19.50;60.02;100824.28;5083632;28;20044;-66
2021/07/29 01:53:34;;;;;;;6.90;2.22;;;;;;;18.69;63.57;100815.41;5082933;28;20020;-66
2021/07/29 01:55:59;;;;;;;9.45;2.15;;;;;;;18.33;63.66;100821.66;5083205;28;20086;-66
2021/07/29 01:58:25;;;;;;;7.05;1.63;;;;;;;17.63;66.98;100818.66;5082713;28;20035;-66
2021/07/29 02:00:51;;;;;;;4.85;1.50;;;;;;;17.82;64.22;100822.63;5083416;28;20028;-66
2021/07/29 02:03:16;;;;;;;4.93;1.00;;;;;;;17.40;62.53;100825.53;5082680;28;20032;-66
2021/07/29 02:05:42;;;;;;;4.80;1.65;;;;;;;17.60;66.55;100828.59;5083346;28;20028;-66
2021/07/29 02:08:07;;;;;;;8.13;1.40;;;;;;;17.40;62.39;100832.66;5083358;28;20134;-66
2021/07/29 02:10:33;;;;;;;4.88;1.33;;;;;;;17.65;62.07;100831.78;5082351;28;20028;-65
2021/07/29 02:12:58;;;;;;;5.78;1.27;;;;;;;17.68;64.72;100825.41;5083425;28;20056;-66
2021/07/29 02:15:24;;;;;;;3.92;1.10;;;;;;;16.96;63.31;100832.09;5082464;28;20063;-66
2021/07/29 02:17:49;;;;;;;4.97;1.70;;;;;;;16.27;71.79;100837.47;5082174;28;20272;-65
2021/07/29 02:20:15;;;;;;;8.73;1.63;;;;;;;16.46;69.26;100836.28;5080962;28;20044;-65
2021/07/29 02:22:40;;;;;;;5.90;0.95;;;;;;;16.39;65.55;100830.56;5083267;28;20258;-66
2021/07/29 02:25:07;;;;;;;3.80;1.30;;;;;;;15.83;69.74;100833.25;5082797;28;20037;-66
2021/07/29 02:27:32;;;;;;;6.45;1.52;;;;;;;15.33;69.04;100834.53;5082439;28;20238;-65
2021/07/29 02:29:58;;;;;;;4.10;1.33;;;;;;;15.44;68.68;100833.88;5082709;28;20044;-65
2021/07/29 02:32:23;;;;;;;4.43;1.20;;;;;;;15.04;68.69;100833.63;5082165;28;20040;-65
2021/07/29 02:34:49;;;;;;;3.83;1.25;;;;;;;15.31;69.92;100839.06;5081975;28;20033;-65
2021/07/29 02:37:15;;;;;;;3.67;1.25;;;;;;;15.16;68.65;100838.19;5082293;28;20036;-65
2021/07/29 02:39:41;;;;;;;4.45;1.23;;;;;;;15.11;69.17;100841.09;5082403;28;20037;-65
2021/07/29 02:42:09;;;;;;;5.15;1.42;;;;;;;14.60;69.21;100835.31;5082894;28;20025;-65
2021/07/29 02:44:35;;;;;;;7.45;1.67;;;;;;;14.46;72.00;100832.56;5081678;28;20308;-65
2021/07/29 02:47:00;;;;;;;4.38;1.63;;;;;;;14.94;71.81;100841.25;5081563;28;20077;-65
2021/07/29 02:49:26;;;;;;;2.05;1.00;;;;;;;14.63;72.30;100848.31;5081675;28;20323;-65
2021/07/29 02:51:51;;;;;;;4.60;1.25;;;;;;;14.42;71.46;100847.72;5082541;28;20231;-65
2021/07/29 02:54:16;;;;;;;6.63;1.60;;;;;;;14.62;75.16;100851.88;5081324;28;20040;-65
2021/07/29 02:56:42;;;;;;;2.78;1.30;;;;;;;14.51;72.55;100848.97;5081488;28;20044;-65
2021/07/29 02:59:07;;;;;;;2.97;1.25;;;;;;;14.29;72.30;100837.00;5082362;28;20438;-65
2021/07/29 03:01:33;;;;;;;6.80;1.63;;;;;;;14.57;71.76;100840.72;5081716;28;20050;-65
2021/07/29 03:03:58;;;;;;;3.70;1.38;;;;;;;14.32;71.54;100852.66;5082247;28;20243;-65
2021/07/29 03:06:23;;;;;;;5.55;1.10;;;;;;;15.00;70.29;100851.44;5081425;28;20044;-65
2021/07/29 03:08:49;;;;;;;7.28;1.25;;;;;;;15.28;69.77;100847.16;5081716;28;20283;-65
2021/07/29 03:11:14;;;;;;;9.05;1.73;;;;;;;14.94;71.63;100849.16;5081424;28;20325;-65
2021/07/29 03:13:40;;;;;;;4.50;1.55;;;;;;;15.16;71.20;100848.75;5082060;28;20044;-65
2021/07/29 03:16:05;;;;;;;5.63;1.50;;;;;;;15.97;69.86;100850.88;5080935;28;20219;-65
2021/07/29 03:18:30;;;;;;;8.95;1.70;;;;;;;15.52;68.00;100850.09;5078510;28;20146;-65
2021/07/29 03:20:56;;;;;;;6.78;1.60;;;;;;;16.00;68.50;100847.16;5081237;28;20042;-65
2021/07/29 03:23:21;;;;;;;8.98;1.80;;;;;;;15.24;68.96;100846.47;5081423;28;20111;-65
2021/07/29 03:25:50;;;;;;;10.00;1.90;;;;;;;15.15;72.51;100845.25;5081614;28;20032;-65
2021/07/29 03:28:16;;;;;;;6.93;1.75;;;;;;;15.12;72.20;100852.50;5060072;28;20104;-65
2021/07/29 03:30:42;;;;;;;7.63;1.48;;;;;;;15.29;76.06;100854.97;5069555;28;20382;-65
2021/07/29 03:33:09;;;;;;;5.38;1.60;;;;;;;16.10;69.87;100858.88;5080616;28;20036;-65
2021/07/29 03:35:35;;;;;;;12.10;2.50;;;;;;;15.43;72.24;100863.88;5080985;28;20040;-65
2021/07/29 03:38:01;;;;;;;4.63;1.63;;;;;;;16.00;71.05;100858.56;5081150;28;20106;-65
2021/07/29 03:40:27;;;;;;;13.68;2.25;;;;;;;15.90;70.82;100854.84;5081212;28;20245;-65
2021/07/29 03:42:52;;;;;;;8.27;1.92;;;;;;;15.79;70.03;100855.50;5080057;28;20050;-65
2021/07/29 03:45:17;;;;;;;10.32;1.95;;;;;;;15.25;72.11;100864.03;5080668;28;20211;-65
2021/07/29 03:47:43;;;;;;;11.30;2.20;;;;;;;15.35;72.42;100856.38;5081349;28;20040;-65
2021/07/29 03:50:08;;;;;;;8.50;1.95;;;;;;;15.36;72.85;100850.19;5081108;28;20039;-65
2021/07/29 03:52:37;;;;;;;7.47;1.83;;;;;;;16.50;72.64;100857.13;5080720;28;20028;-65
2021/07/29 03:55:06;;;;;;;10.75;2.38;;;;;;;15.79;71.40;100857.28;5080623;28;20071;-65
2021/07/29 03:57:32;;;;;;;9.75;2.33;;;;;;;15.69;72.83;100857.81;5070068;28;20036;-65
2021/07/29 03:59:57;;;;;;;8.27;2.10;;;;;;;15.74;74.39;100860.22;5080031;28;20078;-65
2021/07/29 04:02:23;;;;;;;7.43;1.90;;;;;;;15.69;72.84;100860.44;5080474;28;20044;-65
2021/07/29 04:04:48;;;;;;;13.40;2.85;;;;;;;15.71;73.29;100855.09;5080493;28;20033;-65
2021/07/29 04:07:13;;;;;;;9.25;1.95;;;;;;;16.88;71.60;100861.72;5080355;28;20103;-65
2021/07/29 04:09:39;;;;;;;6.55;1.80;;;;;;;16.64;68.73;100861.50;5080917;28;20036;-65
2021/07/29 04:12:05;;;;;;;4.63;1.17;;;;;;;17.12;66.60;100866.31;5081020;28;20239;-65
2021/07/29 04:14:30;;;;;;;9.00;2.00;;;;;;;17.30;69.35;100858.06;5080164;28;20296;-65
2021/07/29 04:16:56;;;;;;;3.53;1.58;;;;;;;17.55;69.67;100865.97;5080623;28;20044;-65
2021/07/29 04:19:21;;;;;;;6.07;1.85;;;;;;;18.24;62.61;100868.22;5080794;28;20040;-65
2021/07/29 04:21:47;;;;;;;5.25;1.55;;;;;;;17.09;68.28;100869.16;5079472;28;20052;-65
2021/07/29 04:24:12;;;;;;;5.45;1.50;;;;;;;17.13;67.86;100867.16;5080269;28;20095;-65
2021/07/29 04:26:40;;;;;;;4.25;1.88;;;;;;;17.20;70.34;100869.28;5079400;28;20108;-65
2021/07/29 04:29:05;;;;;;;8.70;2.00;;;;;;;17.95;65.95;100875.63;5080533;28;20247;-65
2021/07/29 04:31:31;;;;;;;4.05;1.27;;;;;;;18.25;67.54;100875.22;5079969;28;20422;-65
2021/07/29 04:33:57;;;;;;;5.53;1.73;;;;;;;17.60;62.94;100886.88;5080637;28;20032;-65
2021/07/29 04:36:22;;;;;;;9.35;2.10;;;;;;;16.85;68.65;100887.53;5075145;28;20036;-65
2021/07/29 04:38:47;;;;;;;12.45;2.70;;;;;;;17.18;67.41;100886.22;5078798;28;20040;-65
2021/07/29 04:41:13;;;;;;;9.77;2.40;;;;;;;17.44;66.27;100877.34;5077936;28;20036;-65
2021/07/29 04:43:38;;;;;;;9.18;2.38;;;;;;;17.61;65.89;100893.88;5078852;28;20335;-65
2021/07/29 04:46:04;;;;;;;12.68;2.90;;;;;;;17.49;67.55;100884.13;5078459;28;20103;-65
2021/07/29 04:48:32;;;;;;;8.40;1.73;;;;;;;18.66;63.62;100881.94;5078007;28;20354;-65
2021/07/29 04:51:04;;;;;;;8.65;2.33;;;;;;;18.39;65.30;100882.16;5077135;28;20034;-65
2021/07/29 04:53:30;;;;;;;18.65;3.03;;;;;;;17.78;65.77;100882.94;5077347;28;20036;-65
2021/07/29 04:55:55;;;;;;;11.25;2.45;;;;;;;17.89;67.93;100874.25;5078427;28;20059;-65
2021/07/29 04:58:21;;;;;;;17.15;3.05;;;;;;;18.18;65.72;100872.16;5078000;28;20036;-65
2021/07/29 05:00:46;;;;;;;11.60;2.85;;;;;;;18.77;62.01;100881.16;5078174;28;20090;-65
2021/07/29 05:03:12;;;;;;;8.77;2.30;;;;;;;19.18;63.42;100878.06;5077898;28;20153;-65
2021/07/29 05:05:37;;;;;;;9.88;2.65;;;;;;;19.75;61.07;100873.72;5078594;28;20048;-65
2021/07/29 05:08:03;;;;;;;7.95;3.13;;;;;;;19.79;58.87;100876.09;5078154;28;20339;-65
2021/07/29 05:10:28;;;;;;;6.80;2.03;;;;;;;20.45;59.68;100884.13;5078455;28;20044;-65
2021/07/29 05:12:54;;;;;;;7.13;3.08;;;;;;;20.76;56.27;100879.78;5078076;28;20256;-65
2021/07/29 05:15:19;;;;;;;5.20;2.50;;;;;;;21.20;57.66;100874.38;5077641;28;20041;-65
2021/07/29 05:17:45;;;;;;;13.63;3.55;;;;;;;20.97;55.88;100882.47;5082660;28;20030;-65
2021/07/29 05:20:10;;;;;;;8.18;3.03;;;;;;;21.51;55.64;100883.25;5084012;28;20345;-65
2021/07/29 05:22:36;;;;;;;10.85;3.67;;;;;;;21.73;55.64;100892.06;5083514;28;20107;-65
2021/07/29 05:25:02;;;;;;;4.88;1.83;;;;;;;21.23;57.00;100880.28;5084471;28;20048;-65
2021/07/29 05:27:27;;;;;;;10.10;3.95;;;;;;;21.49;54.93;100882.56;5083180;28;20055;-65
2021/07/29 05:29:53;;;;;;;8.88;3.30;;;;;;;21.58;53.46;100889.75;5083824;28;20052;-65
2021/07/29 05:32:18;;;;;;;12.45;4.40;;;;;;;22.46;53.05;100892.72;5083159;28;20036;-66
2021/07/29 05:34:43;;;;;;;11.40;3.80;;;;;;;23.02;53.74;100895.69;5083718;28;20170;-65
2021/07/29 05:37:09;;;;;;;13.13;3.60;;;;;;;22.95;53.48;100895.41;5082501;28;20095;-65
2021/07/29 05:39:34;;;;;;;8.82;2.38;;;;;;;21.59;57.43;100895.91;5066644;28;20049;-65
2021/07/29 05:42:01;;;;;;;7.82;2.10;;;;;;;20.75;57.11;100896.72;5066162;28;20032;-65
2021/07/29 05:44:27;;;;;;;12.00;3.15;;;;;;;22.30;55.68;100903.91;5081099;28;20044;-65
2021/07/29 05:46:52;;;;;;;7.75;3.03;;;;;;;23.62;52.15;100903.47;5080798;28;20105;-65
2021/07/29 05:49:17;;;;;;;5.88;4.25;;;;;;;24.01;50.93;100896.13;5080316;28;20048;-65
2021/07/29 05:51:43;;;;;;;5.45;3.40;;;;;;;23.95;49.39;100907.44;5078891;28;20048;-65
2021/07/29 05:54:08;;;;;;;4.60;3.35;;;;;;;24.29;50.35;100915.72;5079059;28;20077;-65
2021/07/29 05:56:34;;;;;;;6.13;3.35;;;;;;;24.57;49.93;100914.88;5082787;28;20324;-65
2021/07/29 05:58:59;;;;;;;3.42;1.35;;;;;;;22.25;55.46;100914.16;5083717;28;20032;-65
2021/07/29 06:01:24;;;;;;;3.20;1.73;;;;;;;24.09;50.87;100912.31;5080142;28;20044;-65
2021/07/29 06:03:50;;;;;;;1.20;1.05;;;;;;;23.97;51.29;100907.31;5081579;28;20048;-65
2021/07/29 06:06:15;;;;;;;6.28;1.88;;;;;;;24.47;49.86;100914.91;5080780;28;20098;-65
2021/07/29 06:08:40;;;;;;;3.85;1.38;;;;;;;23.95;51.14;100920.81;5081390;28;20044;-65
2021/07/29 06:11:06;;;;;;;6.03;1.98;;;;;;;24.63;49.35;100919.59;5079137;28;20320;-65
2021/07/29 06:13:31;;;;;;;4.85;1.70;;;;;;;24.57;49.59;100921.06;5078856;28;20044;-65
2021/07/29 06:16:02;;;;;;;8.73;1.90;;;;;;;22.63;54.23;100920.56;5078754;28;20035;-65
2021/07/29 06:18:28;;;;;;;4.05;1.50;;;;;;;22.18;55.79;100924.50;5069598;28;20044;-65
2021/07/29 06:20:53;;;;;;;11.85;1.90;;;;;;;23.24;52.75;100922.13;5079921;28;20094;-65
2021/07/29 06:23:18;;;;;;;4.00;1.40;;;;;;;22.23;55.41;100924.13;5079136;28;20081;-65
2021/07/29 06:25:44;;;;;;;5.85;1.80;;;;;;;22.77;53.87;100929.97;5080343;28;20286;-65
2021/07/29 06:28:13;;;;;;;2.25;0.88;;;;;;;22.46;54.47;100929.25;5080494;28;20086;-65
2021/07/29 06:30:38;;;;;;;5.57;1.80;;;;;;;23.25;52.32;100918.47;5076681;28;20240;-65
2021/07/29 06:33:03;;;;;;;7.10;2.40;;;;;;;21.98;55.18;100938.75;5073533;28;20040;-65
2021/07/29 06:35:29;;;;;;;12.27;1.60;;;;;;;22.31;54.51;100939.47;5074315;28;20041;-65
2021/07/29 06:37:56;;;;;;;5.00;1.92;;;;;;;23.02;51.89;100931.25;5076003;28;20028;-66
2021/07/29 06:40:22;;;;;;;3.60;1.45;;;;;;;22.95;52.50;100933.63;5072465;28;20036;-65
2021/07/29 06:42:47;;;;;;;2.28;1.20;;;;;;;22.83;52.56;100937.44;5073447;28;20037;-65
2021/07/29 06:45:12;;;;;;;5.65;1.67;;;;;;;22.74;52.72;100941.78;5072717;28;20100;-65
2021/07/29 06:47:38;;;;;;;5.45;2.00;;;;;;;22.74;52.38;100946.25;5077375;28;20029;-65
2021/07/29 06:50:06;;;;;;;2.92;1.23;;;;;;;22.64;52.78;100943.59;5062313;28;20044;-65
2021/07/29 06:52:32;;;;;;;8.77;2.08;;;;;;;22.95;56.43;100948.81;5065776;28;20366;-66
2021/07/29 06:54:58;;;;;;;8.73;2.22;;;;;;;22.61;51.53;100942.06;5074963;28;20459;-69
2021/07/29 06:57:23;;;;;;;14.32;2.20;;;;;;;22.30;49.82;100951.94;5078925;28;20363;-67
2021/07/29 06:59:49;;;;;;;16.48;2.33;;;;;;;22.81;53.02;100958.06;5084285;28;20100;-67
2021/07/29 07:02:14;;;;;;;20.58;2.67;;;;;;;21.61;51.56;100942.78;5084835;28;20028;-67
2021/07/29 07:04:40;;;;;;;9.40;2.22;;;;;;;23.40;51.57;100972.31;5076696;28;20036;-68
2021/07/29 07:07:12;;;;;;;10.00;2.47;;;;;;;23.26;52.15;100967.41;5081170;28;20052;-68
2021/07/29 07:09:38;;;;;;;23.20;2.63;;;;;;;23.85;50.63;100962.78;5075685;28;20024;-68
2021/07/29 07:12:03;;;;;;;6.38;1.85;;;;;;;22.76;48.22;100966.50;5079601;28;20032;-66
2021/07/29 07:14:29;;;;;;;6.38;1.95;;;;;;;22.87;51.57;100978.91;5083090;28;20040;-67
2021/07/29 07:16:54;;;;;;;13.02;2.88;;;;;;;23.17;51.12;100977.09;5081346;28;20082;-68
2021/07/29 07:19:20;;;;;;;10.52;2.13;;;;;;;23.66;49.95;100980.56;5077860;28;20098;-68
2021/07/29 07:21:45;;;;;;;11.68;2.28;;;;;;;23.46;50.62;100990.44;5081581;28;20036;-67
2021/07/29 07:24:10;;;;;;;6.20;1.90;;;;;;;23.34;50.95;100984.41;5081085;28;20036;-67
2021/07/29 07:26:36;;;;;;;8.60;2.28;;;;;;;23.64;50.57;100985.19;5078700;28;20028;-68
2021/07/29 07:29:03;;;;;;;5.85;2.03;;;;;;;23.52;50.54;100992.56;5074107;28;20048;-67
2021/07/29 07:31:28;;;;;;;15.18;2.05;;;;;;;23.33;51.04;100992.56;5074856;28;20036;-68
2021/07/29 07:33:53;;;;;;;9.07;2.35;;;;;;;23.38;51.41;100998.34;5074557;28;20044;-67
2021/07/29 07:36:20;;;;;;;8.05;2.10;;;;;;;23.50;50.76;101004.34;5073308;28;20037;-67
2021/07/29 07:38:48;;;;;;;15.13;2.65;;;;;;;23.13;48.09;100994.41;5075053;28;20050;-66
2021/07/29 07:41:14;;;;;;;6.53;1.65;;;;;;;23.76;50.21;101002.78;5072948;28;20028;-67
2021/07/29 07:43:39;;;;;;;8.10;2.60;;;;;;;23.76;50.21;101002.78;5083200;28;20042;-69
2021/07/29 07:46:05;;;;;;;10.90;2.17;;;;;;;23.97;49.24;100995.56;5076252;28;20104;-68
2021/07/29 07:48:31;;;;;;;13.20;2.72;;;;;;;23.43;49.76;101001.44;5079375;28;20103;-69
2021/07/29 07:50:56;;;;;;;11.68;2.53;;;;;;;23.93;48.45;100997.69;5075869;28;20040;-68
2021/07/29 07:53:26;;;;;;;12.18;2.15;;;;;;;24.12;48.44;100999.44;5076871;28;20231;-68
2021/07/29 07:55:52;;;;;;;16.02;2.72;;;;;;;24.26;48.20;100998.97;5076661;28;20051;-69
2021/07/29 07:58:17;;;;;;;12.52;2.40;;;;;;;24.34;47.50;100996.41;5079911;28;20032;-69
2021/07/29 08:00:43;;;;;;;6.82;2.20;;;;;;;24.03;48.38;100998.50;5078436;28;20036;-69
2021/07/29 08:03:08;;;;;;;11.43;2.08;;;;;;;24.28;47.88;100998.81;5070153;28;20103;-68
2021/07/29 08:05:34;;;;;;;10.23;1.95;;;;;;;24.31;47.50;101010.06;5076300;28;20029;-68
2021/07/29 08:08:00;;;;;;;10.23;2.13;;;;;;;24.46;47.35;101006.91;5076556;28;20054;-67
2021/07/29 08:10:27;;;;;;;7.38;2.22;;;;;;;24.49;47.40;100998.59;5078349;28;20320;-68
2021/07/29 08:12:53;;;;;;;13.90;2.30;;;;;;;24.53;44.40;101006.19;5077128;28;20036;-68
2021/07/29 08:15:18;;;;;;;8.25;1.95;;;;;;;24.42;46.42;101013.56;5078283;28;20611;-68
2021/07/29 08:17:44;;;;;;;13.52;2.60;;;;;;;24.70;46.82;101012.59;5078589;28;20036;-68
2021/07/29 08:20:09;;;;;;;5.63;2.53;;;;;;;24.79;46.66;101008.13;5074863;28;20036;-67
2021/07/29 08:22:35;;;;;;;11.85;2.85;;;;;;;24.74;47.11;101020.28;5074849;28;20306;-67
2021/07/29 08:25:00;;;;;;;11.18;1.90;;;;;;;24.44;47.87;101023.09;5074977;28;20236;-69
2021/07/29 08:27:26;;;;;;;14.85;2.75;;;;;;;24.47;46.75;101016.63;5082144;28;20040;-67
2021/07/29 08:29:51;;;;;;;7.93;1.85;;;;;;;24.30;47.18;101018.25;5073130;28;20341;-73
2021/07/29 08:32:17;;;;;;;14.05;2.10;;;;;;;24.50;47.39;101019.00;5077344;28;20041;-72
2021/07/29 08:34:42;;;;;;;23.65;2.45;;;;;;;24.51;42.43;101015.34;5071559;28;20028;-74
2021/07/29 08:37:08;;;;;;;9.60;2.60;;;;;;;24.72;46.87;101023.13;5078385;28;20029;-74
2021/07/29 08:39:33;;;;;;;16.50;2.38;;;;;;;24.87;46.33;101023.47;5055128;28;20035;-73
2021/07/29 08:41:58;;;;;;;29.92;2.95;;;;;;;24.97;46.20;101021.53;5075437;28;20038;-74
2021/07/29 08:44:24;;;;;;;15.25;2.22;;;;;;;24.78;43.50;101019.84;5078675;28;20089;-74
2021/07/29 08:46:49;;;;;;;15.20;2.20;;;;;;;24.70;47.37;101017.06;5073341;28;20115;-75
2021/07/29 08:49:15;;;;;;;9.43;1.98;;;;;;;24.65;47.52;101024.72;5080009;28;20284;-73
2021/07/29 08:51:41;;;;;;;18.33;2.13;;;;;;;24.29;47.27;101032.63;5080419;28;20039;-72
2021/07/29 08:54:12;;;;;;;13.45;2.05;;;;;;;24.52;47.74;101035.75;5080056;28;20047;-72
2021/07/29 08:56:38;;;;;;;11.80;2.40;;;;;;;24.76;47.18;101034.38;5059833;28;20059;-73
2021/07/29 08:59:03;;;;;;;10.77;2.10;;;;;;;24.85;47.00;101030.78;5056537;28;20017;-73
2021/07/29 09:01:45;;;;;;;20.63;2.85;;;;;;;25.12;46.11;101035.25;5073589;28;20044;-73
2021/07/29 09:04:15;;;;;;;18.00;2.28;;;;;;;25.11;46.44;101028.22;5086960;28;20059;-73
2021/07/29 09:07:00;;;;;;;15.15;2.47;;;;;;;25.16;46.32;101023.25;5056962;28;20031;-72
2021/07/29 09:09:55;;;;;;;10.07;2.22;;;;;;;25.32;45.88;101032.47;5079441;28;20051;-73
2021/07/29 09:12:23;;;;;;;9.93;2.55;;;;;;;25.36;45.98;101041.88;5053363;28;20063;-73
2021/07/29 09:14:49;;;;;;;18.88;2.70;;;;;;;25.09;46.25;101031.06;5076916;28;20047;-72
2021/07/29 09:17:15;;;;;;;15.60;2.50;;;;;;;25.39;45.07;101044.25;5075925;28;20036;-71
2021/07/29 09:19:42;;;;;;;16.08;2.65;;;;;;;25.34;46.00;101044.72;5075212;28;20036;-71
2021/07/29 09:22:17;;;;;;;7.13;2.15;;;;;;;25.27;40.32;101038.28;5076734;28;20044;-71
2021/07/29 09:25:03;;;;;;;15.98;2.10;;;;;;;25.41;45.97;101045.78;5075478;28;20324;-71
2021/07/29 09:27:39;;;;;;;14.45;2.10;;;;;;;25.48;45.87;101046.84;5078460;28;20078;-73
2021/07/29 09:30:24;;;;;;;12.55;2.17;;;;;;;25.46;45.82;101046.16;5077232;28;20290;-71
2021/07/29 09:33:00;;;;;;;19.70;2.70;;;;;;;25.58;40.33;101054.81;5063153;28;20033;-72
2021/07/29 09:35:28;;;;;;;12.57;2.10;;;;;;;25.62;45.42;101052.66;5065434;28;20059;-72
2021/07/29 09:37:54;;;;;;;22.88;2.55;;;;;;;25.48;45.35;101049.50;5080544;28;20029;-74
2021/07/29 09:40:19;;;;;;;15.95;2.28;;;;;;;25.75;44.53;101045.03;5062494;28;20063;-73
2021/07/29 09:42:44;;;;;;;29.27;2.95;;;;;;;26.00;44.08;101053.28;5074660;28;20389;-72
2021/07/29 09:45:10;;;;;;;12.05;1.90;;;;;;;25.97;39.67;101054.44;5074809;28;20033;-73
2021/07/29 09:47:36;;;;;;;12.48;2.17;;;;;;;26.37;40.14;101049.47;5085505;28;20087;-73
2021/07/29 09:50:02;;;;;;;14.50;2.75;;;;;;;26.12;43.92;101054.69;5071125;28;20043;-73
2021/07/29 09:52:28;;;;;;;12.60;2.10;;;;;;;25.93;44.62;101061.13;5076198;28;20036;-73
2021/07/29 09:54:53;;;;;;;9.60;2.47;;;;;;;25.69;44.92;101059.09;5081314;28;20041;-73
2021/07/29 09:57:18;;;;;;;11.32;2.28;;;;;;;24.02;45.97;101062.84;5065366;28;20056;-74
2021/07/29 09:59:44;;;;;;;3.85;1.30;;;;;;;24.32;44.18;101059.94;5071860;28;20036;-72
2021/07/29 10:02:09;;;;;;;7.20;2.70;;;;;;;24.50;45.40;101070.72;5073098;28;20092;-73
2021/07/29 10:04:46;;;;;;;7.90;2.65;;;;;;;24.18;45.31;101070.28;5077310;28;20063;-70
2021/07/29 10:07:24;;;;;;;6.38;1.88;;;;;;;24.43;44.77;101069.63;5077226;28;20036;-73
2021/07/29 10:09:49;;;;;;;5.18;1.25;;;;;;;24.25;43.89;101068.69;5079521;28;20024;-73
2021/07/29 10:12:19;;;;;;;4.47;1.25;;;;;;;24.23;43.45;101062.63;5074523;28;20602;-73
2021/07/29 10:14:49;;;;;;;8.05;2.25;;;;;;;24.01;43.58;101077.19;5078157;28;20335;-74
2021/07/29 10:17:15;;;;;;;5.80;2.10;;;;;;;23.94;42.49;101059.06;5076777;28;20312;-73
2021/07/29 10:20:20;;;;;;;4.15;1.08;;;;;;;24.86;40.99;101062.78;5080377;28;20044;-72
2021/07/29 10:23:07;;;;;;;5.72;1.38;;;;;;;24.90;41.20;101056.16;5078781;28;20323;-73
2021/07/29 10:25:52;;;;;;;4.97;1.33;;;;;;;24.77;41.79;101060.16;5076619;28;20024;-73
2021/07/29 10:28:28;;;;;;;5.85;1.90;;;;;;;25.61;39.73;101062.56;5077956;28;20058;-71
2021/07/29 10:31:00;;;;;;;11.25;1.90;;;;;;;26.00;39.12;101062.19;5076831;28;20074;-70
2021/07/29 10:33:28;;;;;;;7.40;1.77;;;;;;;26.43;38.95;101063.09;5078101;28;20024;-69
2021/07/29 10:35:53;;;;;;;10.90;2.00;;;;;;;26.87;36.40;101063.94;5076582;28;20044;-70
2021/07/29 10:38:38;;;;;;;7.35;1.73;;;;;;;26.83;38.30;101068.78;5071914;28;20298;-68
2021/07/29 10:41:05;;;;;;;10.75;2.10;;;;;;;26.75;38.62;101080.34;5076074;28;20039;-71
2021/07/29 10:43:30;;;;;;;19.40;2.73;;;;;;;26.84;37.82;101059.75;5056071;28;20043;-71
2021/07/29 10:45:58;;;;;;;14.47;1.97;;;;;;;26.86;38.52;101070.31;5078122;28;20282;-71
2021/07/29 10:48:43;;;;;;;11.60;2.00;;;;;;;26.18;40.01;101070.19;5056499;28;20099;-71
2021/07/29 10:51:18;;;;;;;14.52;2.22;;;;;;;25.46;41.32;101066.75;5073648;28;20640;-72
2021/07/29 10:53:48;;;;;;;8.57;2.10;;;;;;;26.17;40.44;101071.16;5077349;28;20039;-71
2021/07/29 10:56:15;;;;;;;19.20;2.63;;;;;;;26.14;40.26;101081.38;5055452;28;20400;-70
2021/07/29 10:58:41;;;;;;;19.13;1.63;;;;;;;25.66;41.16;101067.44;5074781;28;20040;-71
2021/07/29 11:01:07;;;;;;;9.65;1.55;;;;;;;25.10;42.33;101077.44;5080216;28;20036;-71
2021/07/29 11:03:33;;;;;;;3.58;1.58;;;;;;;24.27;43.81;101082.78;5076991;28;20188;-71
2021/07/29 11:06:09;;;;;;;10.85;1.55;;;;;;;24.24;44.11;101077.72;5077563;28;20035;-72
2021/07/29 11:08:35;;;;;;;7.53;1.60;;;;;;;24.19;43.36;101074.63;5069702;28;20035;-71
2021/07/29 11:11:01;;;;;;;12.25;2.40;;;;;;;24.06;43.97;101077.63;5072005;28;20040;-71
2021/07/29 11:13:28;;;;;;;7.70;1.70;;;;;;;24.05;43.79;101076.78;5057164;28;20066;-70
2021/07/29 11:15:53;;;;;;;3.97;1.55;;;;;;;24.03;43.79;101083.25;5076274;28;20318;-70
2021/07/29 11:18:20;;;;;;;13.10;2.25;;;;;;;24.19;43.56;101082.66;5073438;28;20029;-71
2021/07/29 11:20:46;;;;;;;8.07;1.85;;;;;;;23.19;43.40;101079.31;5074771;28;20331;-71
2021/07/29 11:23:14;;;;;;;6.80;1.50;;;;;;;23.15;43.45;101086.75;5079923;28;20044;-71
2021/07/29 11:25:59;;;;;;;7.35;1.90;;;;;;;23.13;43.52;101086.06;5061988;28;20110;-71